Pine View, North Carolina
Current Conditions -  °F | °C
As of 6:55 PM on Sunday 21 Dec 2014 (Local Time) from KTTA Reporting Station
Overcast Overcast  
Wind Chill: 46°   Ceiling: 4500
Heat Index: 46°   Visibility: 10mi
Dew Point: 40°   Wind: 0mph
Humidity: 81%   Direction: NA
Pressure: 30.23"   Gusts: NA
Location:  35.493°N, 79.1765°W
Report Text: KTTA 212355Z AUTO 00000KT 10SM OVC045 08/05 A3023 RMK AO2 T00750045 10097 20072
Loading
Personal Weather Stations






























Interactive Weather Map New forecast layout! Learn more

10-Day Weather Forecast

Advertisements
Track Severe Weather on mobile